Time;durP1;ratioP1;P1;durP2;ratioP2;P2;SDS_P1;SDS_P2;PMS_P1;PMS_P2;Temp;Humidity;BMP_temperature;BMP_pressure;BME280_temperature;BME280_humidity;BME280_pressure;Samples;Min_cycle;Max_cycle;Signal;HPM_P1;HPM_P2
2022/10/14 00:00:23;;;;;;;9.10;4.70;;;;;;;10.97;100.00;96023.84;5021796;28;24439;-73
2022/10/14 00:02:49;;;;;;;14.90;4.90;;;;;;;10.98;100.00;96037.69;5014870;28;24436;-73
2022/10/14 00:05:16;;;;;;;7.80;4.40;;;;;;;10.98;100.00;96035.91;5022380;28;24432;-73
2022/10/14 00:07:43;;;;;;;8.68;4.40;;;;;;;11.00;100.00;96035.81;5028142;28;24448;-73
2022/10/14 00:10:09;;;;;;;8.68;5.13;;;;;;;11.02;100.00;96028.78;5019633;28;24447;-73
2022/10/14 00:12:36;;;;;;;6.10;4.20;;;;;;;10.99;100.00;96028.97;5027858;28;24443;-73
2022/10/14 00:15:03;;;;;;;7.70;4.50;;;;;;;10.82;100.00;96035.97;5019736;28;24428;-73
2022/10/14 00:17:31;;;;;;;9.70;4.80;;;;;;;10.89;100.00;96039.88;5027213;28;24439;-73
2022/10/14 00:19:58;;;;;;;10.43;4.60;;;;;;;10.92;100.00;96036.25;5014825;28;24452;-73
2022/10/14 00:22:25;;;;;;;5.40;4.53;;;;;;;10.90;100.00;96040.69;5026363;28;24511;-73
2022/10/14 00:24:51;;;;;;;9.10;4.30;;;;;;;10.91;100.00;96039.78;5019585;28;24439;-73
2022/10/14 00:27:18;;;;;;;8.60;4.72;;;;;;;10.93;100.00;96045.69;5025563;28;25024;-73
2022/10/14 00:29:44;;;;;;;11.23;4.70;;;;;;;10.88;100.00;96042.56;5020868;28;24474;-73
2022/10/14 00:32:11;;;;;;;8.05;4.60;;;;;;;10.94;100.00;96041.34;5024075;28;24821;-73
2022/10/14 00:34:38;;;;;;;6.63;4.15;;;;;;;10.93;100.00;96044.88;5021528;28;24440;-73
2022/10/14 00:37:05;;;;;;;16.30;4.70;;;;;;;10.89;100.00;96036.44;5023483;28;24435;-73
2022/10/14 00:39:32;;;;;;;6.43;4.55;;;;;;;10.89;100.00;96041.63;5022314;28;24797;-73
2022/10/14 00:41:58;;;;;;;7.25;4.68;;;;;;;10.84;100.00;96041.91;5022232;28;24432;-73
2022/10/14 00:45:00;;;;;;;9.30;4.38;;;;;;;10.89;100.00;96047.63;5022501;28;24466;-73
2022/10/14 00:47:27;;;;;;;11.13;4.53;;;;;;;10.92;100.00;96043.22;5018840;28;24459;-73
2022/10/14 00:49:57;;;;;;;7.40;4.15;;;;;;;10.90;100.00;96054.50;5018887;28;24802;-73
2022/10/14 00:52:23;;;;;;;10.30;4.53;;;;;;;11.01;100.00;96050.41;5025380;28;24428;-73
2022/10/14 00:54:54;;;;;;;7.05;4.38;;;;;;;11.00;100.00;96048.75;5019440;28;24507;-73
2022/10/14 00:57:22;;;;;;;8.52;4.10;;;;;;;11.07;100.00;96042.28;5025092;28;24428;-73
2022/10/14 00:59:49;;;;;;;7.82;4.20;;;;;;;11.02;100.00;96041.75;5012654;28;24432;-73
2022/10/14 01:02:16;;;;;;;5.18;3.92;;;;;;;11.03;100.00;96048.59;5023513;28;24432;-73
2022/10/14 01:04:44;;;;;;;9.57;4.40;;;;;;;11.05;100.00;96044.13;5013601;28;25088;-73
2022/10/14 01:07:21;;;;;;;6.75;3.92;;;;;;;11.10;100.00;96047.28;5023034;28;24825;-73
2022/10/14 01:09:58;;;;;;;5.70;4.10;;;;;;;11.12;100.00;96048.00;5019693;28;24573;-73
2022/10/14 01:12:32;;;;;;;8.02;4.50;;;;;;;11.13;100.00;96039.34;5010361;28;24440;-73
2022/10/14 01:15:06;;;;;;;5.53;3.87;;;;;;;11.15;100.00;96042.66;5015333;28;24477;-73
2022/10/14 01:17:48;;;;;;;6.17;4.27;;;;;;;11.14;100.00;96036.63;5017299;28;24516;-73
2022/10/14 01:20:53;;;;;;;6.57;4.28;;;;;;;11.11;100.00;96034.22;5018060;28;24432;-73
2022/10/14 01:23:43;;;;;;;5.50;3.70;;;;;;;11.18;100.00;96028.69;4987832;28;25123;-73
2022/10/14 01:26:25;;;;;;;8.77;4.38;;;;;;;11.21;100.00;96026.75;5000715;28;25052;-72
2022/10/14 01:29:01;;;;;;;6.15;4.10;;;;;;;11.15;100.00;96024.50;5021135;28;24452;-73
2022/10/14 01:31:32;;;;;;;9.80;4.78;;;;;;;11.05;100.00;96023.38;5019401;28;24436;-73
2022/10/14 01:34:04;;;;;;;6.97;4.55;;;;;;;11.05;100.00;96023.38;5009945;28;24443;-73
2022/10/14 01:36:37;;;;;;;8.43;4.38;;;;;;;11.03;100.00;96026.09;5019690;28;24435;-73
2022/10/14 01:39:10;;;;;;;7.78;4.47;;;;;;;10.99;100.00;96016.84;5021968;28;24447;-73
2022/10/14 01:41:41;;;;;;;6.95;4.68;;;;;;;11.05;100.00;96019.06;5018438;28;24965;-73
2022/10/14 01:44:10;;;;;;;6.75;4.30;;;;;;;11.11;100.00;96016.09;5015793;28;24445;-73
2022/10/14 01:46:40;;;;;;;6.82;3.88;;;;;;;11.20;100.00;96025.06;5019283;28;24439;-73
2022/10/14 01:49:10;;;;;;;6.50;4.60;;;;;;;11.23;100.00;96024.03;5022094;28;24992;-73
2022/10/14 01:51:43;;;;;;;5.63;4.13;;;;;;;11.21;100.00;96021.56;5020621;28;24798;-73
2022/10/14 01:54:15;;;;;;;5.95;3.85;;;;;;;11.23;100.00;96022.28;5020876;28;24442;-73
2022/10/14 01:56:44;;;;;;;4.93;3.93;;;;;;;11.27;100.00;96020.31;5021258;28;24973;-73
2022/10/14 01:59:14;;;;;;;7.43;4.35;;;;;;;11.28;100.00;96019.41;5021633;28;24435;-73
2022/10/14 02:01:42;;;;;;;5.15;3.72;;;;;;;11.33;100.00;96018.19;5020205;28;24436;-73
2022/10/14 02:04:15;;;;;;;6.57;4.15;;;;;;;11.31;100.00;96017.47;5021167;28;24439;-72
2022/10/14 02:06:47;;;;;;;5.95;4.00;;;;;;;11.30;100.00;96014.97;5020348;28;24482;-73
2022/10/14 02:09:22;;;;;;;6.50;4.25;;;;;;;11.29;100.00;96003.75;5021189;28;25075;-73
2022/10/14 02:12:04;;;;;;;7.20;4.40;;;;;;;11.28;100.00;96004.69;5019193;28;24873;-73
2022/10/14 02:14:39;;;;;;;6.97;4.28;;;;;;;11.27;100.00;96005.63;5019572;28;24446;-73
2022/10/14 02:17:14;;;;;;;8.03;4.53;;;;;;;11.28;100.00;95998.69;5017143;28;24428;-73
2022/10/14 02:19:46;;;;;;;6.28;4.63;;;;;;;11.25;100.00;95999.69;5019477;28;24432;-73
2022/10/14 02:22:23;;;;;;;7.70;4.55;;;;;;;11.23;100.00;95988.56;5020934;28;24435;-73
2022/10/14 02:24:54;;;;;;;7.60;3.88;;;;;;;11.23;100.00;95987.75;5019148;28;24443;-73
2022/10/14 02:27:25;;;;;;;9.25;4.80;;;;;;;11.18;100.00;95982.84;5021161;28;24443;-73
2022/10/14 02:29:54;;;;;;;7.30;4.47;;;;;;;11.15;100.00;95983.84;5012827;28;24443;-73
2022/10/14 02:32:24;;;;;;;4.53;4.07;;;;;;;11.14;100.00;95979.59;5020745;28;24427;-72
2022/10/14 02:34:54;;;;;;;11.82;5.10;;;;;;;11.14;100.00;95973.59;5019037;28;25091;-73
2022/10/14 02:37:22;;;;;;;6.53;4.10;;;;;;;11.15;100.00;95978.69;5021119;28;24434;-73
2022/10/14 02:39:57;;;;;;;6.95;4.35;;;;;;;11.14;100.00;95971.00;5018923;28;24432;-73
2022/10/14 02:42:23;;;;;;;7.57;4.57;;;;;;;11.09;100.00;95965.28;5020540;28;25020;-73
2022/10/14 02:44:54;;;;;;;11.98;4.78;;;;;;;10.97;100.00;95966.00;5018790;28;24485;-73
2022/10/14 02:47:22;;;;;;;8.23;4.70;;;;;;;10.84;100.00;95966.78;5021171;28;24436;-73
2022/10/14 02:49:48;;;;;;;12.48;4.50;;;;;;;10.90;100.00;95969.00;5012417;28;21335;-73
2022/10/14 02:52:15;;;;;;;8.75;4.43;;;;;;;11.00;100.00;95963.25;5020533;28;24431;-73
2022/10/14 02:54:42;;;;;;;5.43;4.22;;;;;;;11.01;100.00;95957.13;5018481;28;24435;-73
2022/10/14 02:57:08;;;;;;;7.90;4.13;;;;;;;10.87;100.00;95958.81;5022987;28;24436;-73
2022/10/14 02:59:35;;;;;;;7.20;4.30;;;;;;;10.80;100.00;95961.88;5016342;28;24435;-73
2022/10/14 03:02:01;;;;;;;6.60;4.20;;;;;;;10.81;100.00;95955.75;5020020;28;24456;-73
2022/10/14 03:04:29;;;;;;;8.98;4.60;;;;;;;10.84;100.00;95953.81;5008973;28;25012;-72
2022/10/14 03:06:56;;;;;;;9.63;4.18;;;;;;;10.84;100.00;95946.03;5011268;28;24438;-74
2022/10/14 03:09:22;;;;;;;7.85;4.53;;;;;;;10.88;100.00;95942.34;5019417;28;25044;-73
2022/10/14 03:11:49;;;;;;;7.43;4.35;;;;;;;10.92;100.00;95939.56;5023413;28;24443;-72
2022/10/14 03:14:15;;;;;;;5.88;3.97;;;;;;;10.94;100.00;95938.56;5024286;28;24427;-72
2022/10/14 03:16:42;;;;;;;9.95;4.30;;;;;;;10.75;100.00;95944.00;5018144;28;24970;-72
2022/10/14 03:19:08;;;;;;;9.55;4.50;;;;;;;10.65;100.00;95943.75;5024870;28;24435;-72
2022/10/14 03:21:36;;;;;;;6.93;4.03;;;;;;;10.64;100.00;95936.03;5021773;28;24436;-72
2022/10/14 03:24:03;;;;;;;7.78;4.55;;;;;;;10.61;100.00;95936.25;5024186;28;24972;-72
2022/10/14 03:26:29;;;;;;;7.95;4.43;;;;;;;10.60;100.00;95925.03;5011396;28;24443;-72
2022/10/14 03:28:56;;;;;;;8.80;4.50;;;;;;;10.65;100.00;95924.78;5010276;28;24479;-72
2022/10/14 03:31:22;;;;;;;9.98;4.40;;;;;;;10.61;100.00;95921.53;5013368;28;24436;-72
2022/10/14 03:33:49;;;;;;;10.90;4.78;;;;;;;10.64;100.00;95915.31;5027127;28;24435;-73
2022/10/14 03:36:16;;;;;;;11.50;4.40;;;;;;;10.69;100.00;95910.72;5021007;28;25011;-72
2022/10/14 03:38:43;;;;;;;7.57;4.47;;;;;;;10.78;100.00;95920.50;5027616;28;25033;-72
2022/10/14 03:41:10;;;;;;;7.70;4.35;;;;;;;10.74;100.00;95908.66;5021846;28;24437;-72
2022/10/14 03:43:36;;;;;;;11.37;4.97;;;;;;;10.78;100.00;95909.31;5027482;28;24432;-72
2022/10/14 03:46:03;;;;;;;7.75;4.75;;;;;;;10.75;100.00;95910.31;5020296;28;24443;-72
2022/10/14 03:48:30;;;;;;;8.38;4.90;;;;;;;10.76;100.00;95908.59;5027205;28;24802;-72
2022/10/14 03:50:56;;;;;;;5.78;4.78;;;;;;;10.67;100.00;95907.38;5016583;28;24474;-72
2022/10/14 03:53:23;;;;;;;7.97;5.00;;;;;;;10.66;100.00;95910.91;5026456;28;24543;-72
2022/10/14 03:55:51;;;;;;;11.47;5.10;;;;;;;10.70;100.00;95904.59;5021127;28;24438;-72
2022/10/14 03:58:17;;;;;;;8.00;5.20;;;;;;;10.75;100.00;95899.13;5025425;28;24425;-72
2022/10/14 04:00:44;;;;;;;6.05;4.43;;;;;;;10.73;100.00;95899.22;5021074;28;24436;-72
2022/10/14 04:03:10;;;;;;;10.90;5.40;;;;;;;10.67;100.00;95899.59;5024025;28;24803;-72
2022/10/14 04:05:37;;;;;;;7.07;4.83;;;;;;;10.73;100.00;95891.47;5014143;28;24432;-72
2022/10/14 04:08:04;;;;;;;6.70;4.67;;;;;;;10.74;100.00;95895.72;5016541;28;24478;-72
2022/10/14 04:10:31;;;;;;;6.72;4.90;;;;;;;10.77;100.00;95892.09;5023248;28;24435;-72
2022/10/14 04:12:58;;;;;;;6.50;5.00;;;;;;;10.80;100.00;95882.38;5021778;28;24802;-72
2022/10/14 04:15:25;;;;;;;8.52;5.15;;;;;;;10.75;100.00;95889.59;5023344;28;24442;-72
2022/10/14 04:17:51;;;;;;;9.13;5.07;;;;;;;10.82;100.00;95882.28;5013173;28;24438;-73
2022/10/14 04:20:18;;;;;;;7.47;4.85;;;;;;;10.88;100.00;95882.75;5045638;22;25748;-76
2022/10/14 04:22:44;;;;;;;8.68;4.80;;;;;;;10.86;100.00;95881.16;5024147;28;24824;-78
2022/10/14 04:25:11;;;;;;;12.43;5.25;;;;;;;10.72;100.00;95879.44;5019657;28;24439;-77
2022/10/14 04:27:37;;;;;;;10.07;4.93;;;;;;;10.70;100.00;95881.28;5024934;28;24439;-74
2022/10/14 04:30:07;;;;;;;10.57;5.38;;;;;;;10.62;100.00;95886.09;5023886;28;24814;-75
2022/10/14 04:32:33;;;;;;;9.98;5.38;;;;;;;10.63;100.00;95880.00;5022560;28;24443;-75
2022/10/14 04:35:00;;;;;;;10.93;5.68;;;;;;;10.61;100.00;95877.50;5022759;28;24434;-75
2022/10/14 04:37:27;;;;;;;12.77;5.63;;;;;;;10.59;100.00;95874.16;5023031;28;25013;-75
2022/10/14 04:39:54;;;;;;;7.47;5.10;;;;;;;10.57;100.00;95877.78;5016361;28;24443;-75
2022/10/14 04:42:20;;;;;;;10.90;5.03;;;;;;;10.64;100.00;95868.69;5023424;28;24443;-75
2022/10/14 04:44:47;;;;;;;6.57;4.95;;;;;;;10.70;100.00;95875.28;5014770;28;25000;-75
2022/10/14 04:47:15;;;;;;;9.43;5.80;;;;;;;10.72;100.00;95878.63;5024136;28;24441;-76
2022/10/14 04:49:41;;;;;;;10.73;5.97;;;;;;;10.67;100.00;95868.50;5019657;28;24448;-77
2022/10/14 04:52:08;;;;;;;8.88;5.72;;;;;;;10.78;100.00;95866.09;5015602;28;24432;-78
2022/10/14 04:54:34;;;;;;;9.33;6.30;;;;;;;10.81;100.00;95865.09;5021243;28;24439;-76
2022/10/14 04:57:01;;;;;;;12.93;8.20;;;;;;;10.84;100.00;95851.94;5024941;28;24802;-77
2022/10/14 04:59:28;;;;;;;11.02;8.13;;;;;;;10.82;100.00;95856.38;5019649;28;24447;-78
2022/10/14 05:01:54;;;;;;;10.52;5.05;;;;;;;10.74;100.00;95849.09;5025623;28;24449;-77
2022/10/14 05:04:22;;;;;;;7.45;4.60;;;;;;;10.77;100.00;95843.72;5011404;28;24451;-77
2022/10/14 05:06:49;;;;;;;5.90;4.33;;;;;;;10.82;100.00;95844.25;5008180;28;24443;-77
2022/10/14 05:09:16;;;;;;;8.82;4.97;;;;;;;10.83;100.00;95839.94;5016651;28;24468;-77
2022/10/14 05:11:42;;;;;;;7.50;4.43;;;;;;;10.87;100.00;95836.22;5019093;28;24476;-77
2022/10/14 05:14:09;;;;;;;6.30;4.55;;;;;;;10.93;100.00;95830.63;5022723;28;24440;-76
2022/10/14 05:16:35;;;;;;;6.32;4.57;;;;;;;10.92;100.00;95839.34;5012465;28;24452;-77
2022/10/14 05:19:02;;;;;;;7.35;4.55;;;;;;;10.96;100.00;95842.56;5009695;28;24489;-76
2022/10/14 05:21:30;;;;;;;10.23;5.22;;;;;;;10.89;100.00;95839.53;5020062;28;24447;-76
2022/10/14 05:23:56;;;;;;;7.47;4.65;;;;;;;10.87;100.00;95838.81;5009403;28;24442;-76
2022/10/14 05:26:23;;;;;;;6.75;4.30;;;;;;;10.90;100.00;95828.22;5005423;28;24464;-76
2022/10/14 05:28:51;;;;;;;6.32;4.50;;;;;;;10.89;100.00;95824.81;5021242;28;24452;-76
2022/10/14 05:31:18;;;;;;;9.83;4.97;;;;;;;10.91;100.00;95829.91;5010967;28;24440;-76
2022/10/14 05:33:44;;;;;;;8.05;5.28;;;;;;;10.87;100.00;95821.50;5009827;28;24439;-76
2022/10/14 05:36:11;;;;;;;7.95;4.95;;;;;;;10.84;100.00;95826.88;5010529;28;24447;-76
2022/10/14 05:38:38;;;;;;;6.30;4.45;;;;;;;10.81;100.00;95827.03;5018586;28;24834;-75
2022/10/14 05:41:05;;;;;;;7.65;4.93;;;;;;;10.80;100.00;95827.16;5011748;28;24444;-75
2022/10/14 05:43:31;;;;;;;9.00;4.85;;;;;;;10.81;100.00;95827.03;5018958;28;24436;-76
2022/10/14 05:45:58;;;;;;;6.13;4.35;;;;;;;10.83;100.00;95816.59;5011431;28;24437;-76
2022/10/14 05:48:25;;;;;;;7.20;4.53;;;;;;;10.83;100.00;95812.25;5014442;28;24437;-76
2022/10/14 05:50:52;;;;;;;10.23;4.38;;;;;;;10.88;100.00;95809.38;5018986;28;24445;-76
2022/10/14 05:53:18;;;;;;;6.33;4.53;;;;;;;10.87;100.00;95811.13;5003965;28;24436;-75
2022/10/14 05:55:46;;;;;;;5.32;4.15;;;;;;;10.87;100.00;95818.91;5005005;28;24431;-76
2022/10/14 05:58:13;;;;;;;5.88;4.28;;;;;;;10.90;100.00;95812.66;5020109;28;24439;-76
2022/10/14 06:00:39;;;;;;;6.28;4.13;;;;;;;10.93;100.00;95812.47;5019198;28;24429;-77
2022/10/14 06:03:06;;;;;;;10.87;4.27;;;;;;;11.00;100.00;95816.34;5016878;28;24440;-78
2022/10/14 06:05:35;;;;;;;7.07;4.38;;;;;;;10.98;100.00;95814.81;5016007;28;24433;-76
2022/10/14 06:08:01;;;;;;;10.63;4.82;;;;;;;10.97;100.00;95813.94;5019070;28;24437;-77
2022/10/14 06:10:28;;;;;;;7.60;4.50;;;;;;;11.03;100.00;95821.34;5018800;28;24473;-76
2022/10/14 06:12:56;;;;;;;9.27;5.22;;;;;;;10.98;100.00;95815.63;5010984;28;24429;-76
2022/10/14 06:15:23;;;;;;;9.40;4.90;;;;;;;11.02;100.00;95822.28;5025952;28;24781;-76
2022/10/14 06:17:49;;;;;;;8.52;4.72;;;;;;;11.01;100.00;95830.13;5020261;28;24438;-76
2022/10/14 06:20:16;;;;;;;8.50;4.60;;;;;;;11.07;100.00;95817.63;5019028;28;24438;-79
2022/10/14 06:22:42;;;;;;;6.18;4.43;;;;;;;11.03;100.00;95817.91;5023981;28;24435;-76
2022/10/14 06:25:09;;;;;;;7.93;4.25;;;;;;;11.07;100.00;95821.97;5018871;28;24462;-76
2022/10/14 06:27:36;;;;;;;8.95;4.72;;;;;;;11.08;100.00;95821.88;5025312;28;25061;-76
2022/10/14 06:30:04;;;;;;;9.38;4.70;;;;;;;11.12;100.00;95820.78;5019573;28;25093;-77
2022/10/14 06:32:31;;;;;;;6.68;4.30;;;;;;;11.17;100.00;95817.88;5023984;28;24436;-76
2022/10/14 06:34:58;;;;;;;8.70;4.95;;;;;;;11.23;100.00;95816.63;5018428;28;24459;-76
2022/10/14 06:37:24;;;;;;;6.60;4.63;;;;;;;11.24;100.00;95826.09;5018866;28;25062;-79
2022/10/14 06:39:51;;;;;;;6.25;4.43;;;;;;;11.29;100.00;95827.44;5020505;28;24463;-77
2022/10/14 06:42:17;;;;;;;8.38;4.40;;;;;;;11.28;100.00;95819.78;5010357;28;24981;-76
2022/10/14 06:44:44;;;;;;;6.70;4.50;;;;;;;11.31;100.00;95814.38;5020148;28;24439;-76
2022/10/14 06:47:12;;;;;;;10.85;4.55;;;;;;;11.24;100.00;95818.31;5016009;28;24452;-78
2022/10/14 06:49:38;;;;;;;7.18;4.68;;;;;;;11.26;100.00;95826.81;5020175;28;24455;-77
2022/10/14 06:52:05;;;;;;;9.07;4.50;;;;;;;11.24;100.00;95823.50;5021599;28;25036;-76
2022/10/14 06:54:32;;;;;;;6.03;4.57;;;;;;;11.25;100.00;95825.16;5019873;28;24972;-77
2022/10/14 06:56:58;;;;;;;11.48;4.03;;;;;;;11.19;100.00;95823.78;5021737;28;24432;-77
2022/10/14 06:59:27;;;;;;;9.27;4.80;;;;;;;11.17;100.00;95820.47;5014310;28;25181;-76
2022/10/14 07:01:53;;;;;;;7.20;4.30;;;;;;;11.21;100.00;95824.53;5018697;28;24457;-76
2022/10/14 07:04:21;;;;;;;6.05;4.07;;;;;;;11.24;100.00;95816.56;5014114;28;24431;-77
2022/10/14 07:06:48;;;;;;;7.18;4.38;;;;;;;11.29;100.00;95817.06;5020943;28;24432;-77
2022/10/14 07:09:14;;;;;;;4.47;3.80;;;;;;;11.31;100.00;95811.78;5018727;28;24483;-79
2022/10/14 07:11:42;;;;;;;8.35;4.13;;;;;;;11.36;100.00;95820.94;5023722;28;24439;-79
2022/10/14 07:14:08;;;;;;;7.38;3.85;;;;;;;11.46;100.00;95812.53;5024923;28;24486;-79
2022/10/14 07:16:35;;;;;;;6.60;4.07;;;;;;;11.45;100.00;95809.13;5023251;28;24432;-77
2022/10/14 07:19:02;;;;;;;7.28;4.00;;;;;;;11.47;100.00;95809.88;5020970;28;24486;-77
2022/10/14 07:21:30;;;;;;;7.15;4.43;;;;;;;11.55;100.00;95811.94;5018824;28;25010;-76
2022/10/14 07:23:56;;;;;;;10.30;4.53;;;;;;;11.52;100.00;95809.56;5008489;28;24436;-76
2022/10/14 07:26:23;;;;;;;11.00;4.22;;;;;;;11.62;100.00;95811.44;5015018;28;24439;-81
2022/10/14 07:28:50;;;;;;;10.32;4.40;;;;;;;11.75;100.00;95813.22;5018974;28;24814;-78
2022/10/14 07:31:16;;;;;;;6.85;4.05;;;;;;;11.77;100.00;95817.38;5016182;28;24467;-77
2022/10/14 07:33:43;;;;;;;9.18;4.40;;;;;;;11.89;100.00;95820.13;5028926;28;24435;-79
2022/10/14 07:36:12;;;;;;;7.43;4.13;;;;;;;11.94;100.00;95821.47;5022721;28;24439;-79
2022/10/14 07:38:40;;;;;;;12.03;4.37;;;;;;;11.85;100.00;95809.94;5027820;28;24436;-78
2022/10/14 07:41:15;;;;;;;6.85;4.00;;;;;;;11.84;100.00;95813.47;5012166;28;24439;-79
2022/10/14 07:43:42;;;;;;;5.63;4.00;;;;;;;11.97;100.00;95817.81;5029993;28;24467;-79
2022/10/14 07:46:11;;;;;;;9.10;4.47;;;;;;;12.10;100.00;95819.50;5030150;28;24806;-78
2022/10/14 07:48:38;;;;;;;5.32;3.80;;;;;;;12.14;100.00;95820.13;5025234;28;24455;-78
2022/10/14 07:51:05;;;;;;;7.00;4.20;;;;;;;12.15;100.00;95816.59;5032403;28;24460;-79
2022/10/14 07:53:32;;;;;;;7.68;4.32;;;;;;;12.19;100.00;95827.59;5029233;28;24442;-79
2022/10/14 07:55:59;;;;;;;9.38;4.35;;;;;;;12.26;100.00;95821.03;5020015;28;24993;-79
2022/10/14 07:58:29;;;;;;;9.02;3.97;;;;;;;12.28;100.00;95825.19;5021205;28;24447;-79
2022/10/14 08:00:56;;;;;;;9.23;4.93;;;;;;;12.28;100.00;95830.41;5029236;28;24527;-79
2022/10/14 08:03:23;;;;;;;7.88;4.50;;;;;;;12.20;100.00;95831.84;5027423;28;24432;-78
2022/10/14 08:05:50;;;;;;;8.30;4.60;;;;;;;12.26;100.00;95823.63;5024353;28;24435;-78
2022/10/14 08:08:18;;;;;;;6.22;4.03;;;;;;;12.27;100.00;95827.88;5025999;28;24797;-78
2022/10/14 08:10:44;;;;;;;6.28;4.55;;;;;;;12.29;100.00;95823.44;5025656;28;25005;-79
2022/10/14 08:13:12;;;;;;;7.95;4.18;;;;;;;12.37;100.00;95817.72;5028311;28;24812;-79
2022/10/14 08:15:42;;;;;;;5.72;3.90;;;;;;;12.45;100.00;95823.19;5022109;28;24543;-78
2022/10/14 08:18:10;;;;;;;5.90;4.10;;;;;;;12.42;100.00;95821.66;5038320;28;24432;-78
2022/10/14 08:20:37;;;;;;;6.85;4.28;;;;;;;12.52;100.00;95820.06;5030692;28;24428;-78
2022/10/14 08:23:04;;;;;;;8.88;3.92;;;;;;;12.60;100.00;95812.56;5028368;28;24432;-78
2022/10/14 08:25:30;;;;;;;7.03;4.22;;;;;;;12.69;100.00;95816.31;5027300;28;24450;-78
2022/10/14 08:27:57;;;;;;;5.63;3.90;;;;;;;12.76;100.00;95814.94;5020590;28;24972;-78
2022/10/14 08:30:25;;;;;;;8.30;3.90;;;;;;;12.75;100.00;95813.25;5030601;28;24551;-78
2022/10/14 08:32:52;;;;;;;8.40;3.97;;;;;;;12.80;100.00;95810.34;5032674;28;24425;-78
2022/10/14 08:35:18;;;;;;;5.43;3.70;;;;;;;12.81;100.00;95812.00;5031507;28;24435;-78
2022/10/14 08:37:45;;;;;;;6.28;3.80;;;;;;;12.79;100.00;95817.31;5032840;28;24458;-78
2022/10/14 08:40:16;;;;;;;5.55;3.80;;;;;;;12.78;100.00;95813.03;5027897;28;24424;-78
2022/10/14 08:42:49;;;;;;;6.43;3.67;;;;;;;12.84;100.00;95812.63;5029973;28;24479;-78
2022/10/14 08:45:22;;;;;;;9.55;4.65;;;;;;;12.82;100.00;95806.69;5032197;28;24446;-78
2022/10/14 08:47:55;;;;;;;9.02;3.95;;;;;;;12.85;100.00;95810.84;5025774;28;24423;-78
2022/10/14 08:50:28;;;;;;;5.15;3.90;;;;;;;12.81;100.00;95814.59;5024069;28;24972;-78
2022/10/14 08:52:59;;;;;;;7.88;3.75;;;;;;;12.89;100.00;95812.28;5029985;28;24539;-78
2022/10/14 08:55:32;;;;;;;5.80;4.00;;;;;;;12.84;100.00;95807.41;5026329;28;24448;-78
2022/10/14 08:58:02;;;;;;;7.20;4.13;;;;;;;12.85;100.00;95808.25;5020309;28;24428;-78
2022/10/14 09:00:32;;;;;;;5.95;3.83;;;;;;;13.01;100.00;95807.97;5029759;28;24438;-78
2022/10/14 09:03:05;;;;;;;9.13;3.90;;;;;;;13.01;100.00;95805.38;5027084;28;24431;-78
2022/10/14 09:05:31;;;;;;;7.95;4.03;;;;;;;13.12;100.00;95802.81;5023347;28;24965;-78
2022/10/14 09:07:58;;;;;;;6.90;3.83;;;;;;;13.19;100.00;95808.41;5032056;28;24446;-78
2022/10/14 09:10:30;;;;;;;5.80;3.70;;;;;;;13.21;100.00;95802.16;5029640;28;24534;-78
2022/10/14 09:13:01;;;;;;;6.60;3.88;;;;;;;13.28;100.00;95798.22;5019267;28;24428;-78
2022/10/14 09:15:34;;;;;;;6.47;3.88;;;;;;;13.38;100.00;95787.94;5032133;28;24439;-78
2022/10/14 09:18:06;;;;;;;8.18;4.18;;;;;;;13.50;100.00;95786.25;5019689;28;24440;-78
2022/10/14 09:20:33;;;;;;;5.13;3.67;;;;;;;13.60;100.00;95787.19;5030665;28;24982;-78
2022/10/14 09:23:15;;;;;;;6.97;3.70;;;;;;;13.69;100.00;95785.69;5026228;28;24969;-78
2022/10/14 09:25:47;;;;;;;7.20;3.78;;;;;;;13.73;100.00;95787.94;5031333;28;24441;-78
2022/10/14 09:28:14;;;;;;;9.18;4.05;;;;;;;13.80;100.00;95780.50;5031776;28;24503;-78
2022/10/14 09:30:41;;;;;;;8.45;3.53;;;;;;;14.03;100.00;95786.56;5029181;28;24468;-78
2022/10/14 09:33:16;;;;;;;5.07;3.33;;;;;;;14.03;100.00;95786.56;5027887;28;24841;-78
2022/10/14 09:35:43;;;;;;;9.10;3.42;;;;;;;14.11;100.00;95786.81;5031284;28;24425;-78
2022/10/14 09:38:11;;;;;;;6.50;3.35;;;;;;;14.02;100.00;95787.53;5026099;28;24474;-78
2022/10/14 09:40:41;;;;;;;5.55;3.40;;;;;;;14.20;100.00;95788.72;5024412;28;24443;-78
2022/10/14 09:43:15;;;;;;;6.47;3.00;;;;;;;14.27;100.00;95782.06;5032037;28;24434;-78
2022/10/14 09:45:51;;;;;;;6.23;3.40;;;;;;;14.19;100.00;95776.63;5031641;28;24435;-78
2022/10/14 09:48:30;;;;;;;5.50;3.10;;;;;;;14.29;100.00;95780.19;5034831;28;24434;-78
2022/10/14 09:50:59;;;;;;;8.57;3.20;;;;;;;14.33;100.00;95774.75;5029659;28;24461;-79
2022/10/14 09:53:29;;;;;;;7.25;3.78;;;;;;;14.49;100.00;95776.06;5028408;28;24440;-78
2022/10/14 09:55:59;;;;;;;5.65;3.30;;;;;;;14.44;100.00;95779.94;5019217;28;20784;-78
2022/10/14 09:58:33;;;;;;;6.43;3.10;;;;;;;14.48;100.00;95771.75;5024468;28;24447;-78
2022/10/14 10:01:01;;;;;;;13.00;3.92;;;;;;;14.47;100.00;95775.31;5019367;28;24805;-78
2022/10/14 10:03:32;;;;;;;7.22;3.42;;;;;;;14.50;100.00;95772.53;5030173;28;24430;-78
2022/10/14 10:06:01;;;;;;;5.90;3.70;;;;;;;14.47;100.00;95770.13;5018293;28;24462;-78
2022/10/14 10:08:27;;;;;;;4.27;3.33;;;;;;;14.44;100.00;95762.53;5030233;28;24435;-78
2022/10/14 10:10:59;;;;;;;10.23;3.55;;;;;;;14.51;100.00;95763.75;5030060;28;24535;-78
2022/10/14 10:13:32;;;;;;;7.53;3.53;;;;;;;14.65;100.00;95757.44;5023349;28;24904;-78
2022/10/14 10:16:01;;;;;;;6.60;3.90;;;;;;;14.77;100.00;95760.84;5018171;28;24431;-78
2022/10/14 10:18:29;;;;;;;5.47;3.70;;;;;;;14.61;100.00;95753.44;5024496;28;24424;-78
2022/10/14 10:21:05;;;;;;;5.90;3.63;;;;;;;14.52;100.00;95754.97;5025666;28;24813;-78
2022/10/14 10:23:33;;;;;;;6.78;4.15;;;;;;;14.48;100.00;95756.13;5016932;28;24447;-78
2022/10/14 10:26:15;;;;;;;8.40;4.22;;;;;;;14.43;100.00;95754.84;5021610;28;24546;-78
2022/10/14 10:28:45;;;;;;;8.35;4.25;;;;;;;14.31;100.00;95755.78;5028968;28;24428;-79
2022/10/14 10:31:52;;;;;;;8.20;4.05;;;;;;;14.23;100.00;95748.56;5024970;28;24456;-79
2022/10/14 10:34:49;;;;;;;7.23;4.57;;;;;;;14.05;100.00;95740.41;5018940;28;24439;-79
2022/10/14 10:37:25;;;;;;;5.80;3.50;;;;;;;14.10;100.00;95737.47;5020719;28;25022;-78
2022/10/14 10:40:08;;;;;;;6.15;3.90;;;;;;;13.99;100.00;95735.69;5014994;28;24428;-78
2022/10/14 10:42:40;;;;;;;8.07;4.35;;;;;;;13.91;100.00;95725.03;5028431;28;24432;-77
2022/10/14 10:45:15;;;;;;;6.63;4.03;;;;;;;13.89;100.00;95730.34;5019625;28;24991;-78
2022/10/14 10:47:48;;;;;;;6.47;4.07;;;;;;;13.77;100.00;95721.69;5020005;28;24431;-78
2022/10/14 10:50:30;;;;;;;11.35;4.40;;;;;;;13.75;100.00;95718.38;5014276;28;24458;-78
2022/10/14 10:53:16;;;;;;;8.70;4.10;;;;;;;13.82;100.00;95723.94;5027010;28;24989;-78
2022/10/14 10:55:53;;;;;;;7.63;4.43;;;;;;;13.89;100.00;95722.53;5017329;28;24996;-78
2022/10/14 10:58:34;;;;;;;6.03;3.90;;;;;;;13.88;100.00;95718.28;5027490;28;24435;-78
2022/10/14 11:01:07;;;;;;;7.55;3.85;;;;;;;13.88;100.00;95712.25;5016082;28;25052;-79
2022/10/14 11:03:49;;;;;;;7.63;4.28;;;;;;;13.93;100.00;95715.31;5019882;28;24834;-79
2022/10/14 11:12:06;;;;;;;5.97;3.63;;;;;;;13.97;100.00;95690.69;5030207;28;24563;-79
2022/10/14 11:14:53;;;;;;;5.15;3.72;;;;;;;14.04;100.00;95686.66;5032084;28;24466;-79
2022/10/14 11:17:28;;;;;;;7.63;3.85;;;;;;;14.09;100.00;95689.75;5029493;28;24431;-79
2022/10/14 11:20:04;;;;;;;7.45;4.03;;;;;;;14.08;100.00;95680.28;5032745;28;24428;-79
2022/10/14 11:22:51;;;;;;;6.47;4.05;;;;;;;14.10;100.00;95681.00;5038325;28;24848;-79
2022/10/14 11:25:25;;;;;;;6.15;3.55;;;;;;;14.11;100.00;95682.63;5022610;28;24877;-78
2022/10/14 11:28:03;;;;;;;5.40;3.60;;;;;;;14.20;100.00;95683.69;5038467;28;24494;-79
2022/10/14 11:30:42;;;;;;;10.60;5.53;;;;;;;14.28;100.00;95678.72;5027235;28;24456;-79
2022/10/14 11:33:28;;;;;;;6.90;3.63;;;;;;;14.40;100.00;95671.72;5021237;28;24435;-78
2022/10/14 11:36:06;;;;;;;6.70;4.18;;;;;;;14.45;100.00;95665.16;5031993;28;24423;-78
2022/10/14 11:38:48;;;;;;;5.30;3.35;;;;;;;14.46;100.00;95661.63;5031911;28;24434;-78
2022/10/14 11:41:27;;;;;;;4.93;3.22;;;;;;;14.73;100.00;95657.78;5020880;28;24420;-78